Flight Track Log - Related Links

Times and Time Zones

All times are in EDT time to prevent confusion due to time zone crossing. See the AAL961 flight status page for this flight to view local times or setup timezone preferences in your user account.

Time Position Orientation Groundspeed Altitude Reporting Facility
EDT Latitude Longitude Course Direction KTS MPH feet Rate Location/Type
Mon 05:52:37 PM 25.8019 -80.2583 104° East 164 189 1,200  Level Miami Center
Mon 05:52:47 PM 25.8036 -80.2528 72° East 179 206 1,400 1,475 Climbing Miami Center
Mon 05:53:38 PM 25.8081 -80.1964 85° East 231 266 2,700 1,355 Climbing Miami Center
Mon 05:53:49 PM 25.8097 -80.1908 72° East 205 236 2,800 2,358 Climbing Miami Center
Mon 05:55:00 PM 25.6810 -79.8977 104° East  Level FlightAware Approximate
Mon 05:56:00 PM 25.6502 -79.7672 105° East  Level FlightAware Approximate
Mon 05:57:00 PM 25.6301 -79.6353 104° East  Level FlightAware Approximate
Mon 05:58:00 PM 25.6010 -79.5047 104° East  Level FlightAware Approximate
Mon 05:59:47 PM 25.9391 -79.6211 82° East 373 429 17,200  Level FlightAware ADS-B (KEYW)
Mon 06:00:32 PM 25.9433 -79.5345 92° East 382 440 19,000 2,308 Climbing FlightAware ADS-B (KEYW)
Mon 06:01:18 PM 25.9398 -79.4422 92° East 395 455 20,700 2,148 Climbing FlightAware ADS-B (KEYW)
Mon 06:01:53 PM 25.9373 -79.3692 92° East 404 465 21,900 2,022 Climbing FlightAware ADS-B (KEYW)
Mon 06:02:47 PM 25.9320 -79.2559 93° East 414 476 23,700 2,000 Climbing FlightAware ADS-B (KEYW)
Mon 06:03:32 PM 25.9270 -79.1602 93° East 419 482 25,200 1,780 Climbing FlightAware ADS-B (KEYW)
Mon 06:04:18 PM 25.9217 -79.0609 93° East 429 494 26,400 1,533 Climbing FlightAware ADS-B (KEYW)
Mon 06:05:02 PM 25.9164 -78.9607 93° East 442 509 27,500 1,448 Climbing FlightAware ADS-B (KEYW)
Mon 06:05:45 PM 25.9112 -78.8633 93° East 449 517 28,500 1,385 Climbing FlightAware ADS-B (KEYW)
Mon 06:06:07 PM 25.9027 -78.8136 106° East 452 520 29,000 1,375 Climbing FlightAware ADS-B (KEYW)
Mon 06:06:33 PM 25.8796 -78.7600 122° Southeast 455 524 29,600 1,352 Climbing FlightAware ADS-B (KEYW)
Mon 06:07:18 PM 25.8165 -78.6797 132° Southeast 459 528 30,600 1,400 Climbing FlightAware ADS-B (KEYW)
Mon 06:08:03 PM 25.7510 -78.6019 133° Southeast 461 531 31,700 1,520 Climbing FlightAware ADS-B (KEYW)
Mon 06:08:33 PM 25.7074 -78.5501 132° Southeast 459 528 32,500 1,440 Climbing FlightAware ADS-B (KEYW)
Mon 06:09:18 PM 25.6411 -78.4718 133° Southeast 458 527 33,500 1,385 Climbing FlightAware ADS-B (KEYW)
Mon 06:10:04 PM 25.5755 -78.3948 133° Southeast 458 527 34,600 1,319 Climbing FlightAware ADS-B (KEYW)
Mon 06:10:49 PM 25.5072 -78.3211 137° Southeast 456 525 35,500 1,133 Climbing FlightAware ADS-B (KEYW)
Mon 06:11:34 PM 25.4386 -78.2523 137° Southeast 454 522 36,300 1,099 Climbing FlightAware ADS-B (KEYW)
Mon 06:12:00 PM 25.4191 -78.2329 137° Southeast 453 521 36,800 1,024 Climbing FlightAware ADS-B (KEYW)
Mon 06:13:37 PM 25.2472 -78.0612 137° Southeast 448 516 38,400 917 Climbing FlightAware ADS-B (KEYW)
Mon 06:14:24 PM 25.1769 -77.9917 137° Southeast 448 516 39,000 330 Climbing Miami Center
Mon 06:15:26 PM 25.0853 -77.9000 138° Southeast 447 514 39,000  Level Miami Center
Mon 06:16:28 PM 24.9928 -77.8092 138° Southeast 447 514 39,000  Level Miami Center
Mon 06:17:30 PM 24.8903 -77.7078 138° Southeast 448 516 39,000  Level Miami Center
Mon 06:18:32 PM 24.7969 -77.6150 138° Southeast 452 520 39,000  Level Miami Center
Mon 06:19:33 PM 24.7042 -77.5219 138° Southeast 453 521 39,000  Level Miami Center
Mon 06:20:35 PM 24.6008 -77.4200 138° Southeast 454 522 39,000  Level Miami Center
Mon 06:21:37 PM 24.5078 -77.3275 138° Southeast 452 520 39,000  Level Miami Center
Mon 06:22:38 PM 24.4136 -77.2347 138° Southeast 454 522 39,000  Level Miami Center
Mon 06:23:40 PM 24.3211 -77.1433 138° Southeast 452 520 39,000  Level Miami Center
Mon 06:24:42 PM 24.2194 -77.0444 138° Southeast 447 514 39,000  Level Miami Center
Mon 06:25:43 PM 24.1267 -76.9539 138° Southeast 447 514 39,000  Level Miami Center
Mon 06:26:45 PM 24.0442 -76.8731 138° Southeast 446 513 39,000  Level Miami Center
Mon 06:27:47 PM 23.9319 -76.7647 139° Southeast 447 514 39,000  Level Miami Center
Mon 06:28:49 PM 23.8375 -76.6739 139° Southeast 451 519 39,000  Level Miami Center
Mon 06:29:50 PM 23.7428 -76.5828 139° Southeast 453 521 39,000  Level Miami Center
Mon 06:30:52 PM 23.6486 -76.4911 138° Southeast 453 521 39,000  Level Miami Center
Mon 06:31:54 PM 23.5539 -76.3994 138° Southeast 453 521 39,000  Level Miami Center
Mon 06:32:55 PM 23.4586 -76.3072 138° Southeast 455 524 39,000  Level Miami Center
Mon 06:33:57 PM 23.3628 -76.2158 139° Southeast 459 528 39,000  Level Miami Center
Mon 06:34:58 PM 23.2483 -76.1050 138° Southeast 460 529 39,000  Level Miami Center
Mon 06:36:00 PM 23.1525 -76.0131 139° Southeast 461 531 39,000  Level Miami Center
Mon 06:37:02 PM 23.0556 -75.9214 139° Southeast 462 532 39,000  Level Miami Center
Mon 06:38:03 PM 22.9606 -75.8286 138° Southeast 462 532 39,000  Level Miami Center
Mon 06:39:05 PM 22.8653 -75.7367 138° Southeast 462 532 39,000  Level Miami Center
Mon 06:40:06 PM 22.7692 -75.6467 139° Southeast 459 528 39,000  Level Miami Center
Mon 06:41:08 PM 22.6750 -75.5556 138° Southeast 457 526 39,000  Level Miami Center
Mon 06:42:09 PM 22.5572 -75.4464 139° Southeast 460 529 39,000  Level Miami Center
Mon 06:43:11 PM 22.4606 -75.3536 138° Southeast 462 532 39,000  Level Miami Center
Mon 06:44:12 PM 22.3628 -75.2608 139° Southeast 464 534 39,000  Level Miami Center
Mon 06:45:14 PM 22.2647 -75.1697 139° Southeast 464 534 39,000  Level Miami Center
Mon 06:46:15 PM 22.1669 -75.0781 139° Southeast 462 532 39,000  Level Miami Center
Mon 06:47:17 PM 22.0686 -74.9872 139° Southeast 462 532 39,000  Level Miami Center
Mon 06:48:18 PM 21.9711 -74.8967 139° Southeast 462 532 39,000  Level Miami Center
Mon 06:49:20 PM 21.8747 -74.8053 139° Southeast 462 532 39,000  Level Miami Center
Mon 06:50:21 PM 21.7781 -74.7156 139° Southeast 462 532 39,000  Level Miami Center
Mon 06:51:23 PM 21.6811 -74.6256 139° Southeast 462 532 39,000  Level Miami Center
Mon 06:52:24 PM 21.5622 -74.5158 139° Southeast 462 532 39,000 -49 Level Miami Center
Mon 06:53:26 PM 21.4656 -74.4258 139° Southeast 462 532 38,900  Descending Miami Center
Mon 06:54:27 PM 21.3664 -74.3339 139° Southeast 461 531 39,000 49 Climbing Miami Center
Mon 06:55:29 PM 21.2714 -74.2461 139° Southeast 460 529 39,000  Level Miami Center
Mon 06:56:30 PM 21.1728 -74.1544 139° Southeast 463 533 39,000  Level Miami Center
Mon 06:57:32 PM 21.0750 -74.0644 139° Southeast 463 533 39,000 -49 Level Miami Center
Mon 06:58:33 PM 20.9764 -73.9744 140° Southeast 464 534 38,900 -49 Descending Miami Center
Mon 06:59:34 PM 20.8761 -73.8831 140° Southeast 465 535 38,900 49 Level Miami Center
Mon 07:00:36 PM 20.7797 -73.7939 139° Southeast 465 535 39,000 49 Climbing Miami Center
Mon 07:01:37 PM 20.6839 -73.7056 139° Southeast 463 533 39,000 -49 Level Miami Center
Mon 07:02:39 PM 20.5647 -73.5978 140° Southeast 463 533 38,900  Descending Miami Center
Mon 07:03:40 PM 20.4642 -73.5072 140° Southeast 464 534 39,000 49 Climbing Miami Center
Mon 07:04:41 PM 20.3619 -73.4164 140° Southeast 470 541 39,000  Level Miami Center
Mon 07:05:43 PM 20.2703 -73.3294 138° Southeast 456 525 39,000  Level Miami Center
Mon 07:06:44 PM 20.1692 -73.2403 140° Southeast 467 537 39,000  Level Miami Center
Mon 07:29:59 PM 17.8137 -71.3266 143° Southeast 450 518 39,000  Level FlightAware ADS-B (MTPP / PAP)
Mon 07:30:00 PM 17.8512 -71.4818 151° Southeast  Level FlightAware Approximate
Mon 07:30:28 PM 17.7724 -71.2940 143° Southeast 450 518 39,000  Level FlightAware ADS-B (MTPP / PAP)
Mon 07:30:55 PM 17.7215 -71.2539 142° Southeast 449 517 39,000  Level FlightAware ADS-B (MTPP / PAP)
Mon 07:31:26 PM 17.6707 -71.2140 142° Southeast 449 517 39,000  Level FlightAware ADS-B (MTPP / PAP)
Mon 07:32:01 PM 17.6120 -71.1677 143° Southeast 450 518 39,000  Level FlightAware ADS-B (MTPP / PAP)
Mon 07:32:32 PM 17.5589 -71.1260 143° Southeast 450 518 39,000  Level FlightAware ADS-B (MTPP / PAP)
Mon 07:32:57 PM 17.5191 -71.0947 143° Southeast 450 518 39,000  Level FlightAware ADS-B (MTPP / PAP)
Mon 07:33:32 PM 17.4600 -71.0484 143° Southeast 450 518 39,000  Level FlightAware ADS-B (MTPP / PAP)
Mon 07:33:59 PM 17.4158 -71.0137 143° Southeast 450 518 39,000  Level FlightAware ADS-B (MTPP / PAP)
Mon 07:35:01 PM 17.3263 -70.9437 143° Southeast 450 518 39,000  Level FlightAware ADS-B (MTPP / PAP)
Mon 07:47:24 PM 16.0707 -69.9691 143° Southeast 445 512 39,000  Level FlightAware ADS-B
Mon 07:48:05 PM 16.0013 -69.9157 143° Southeast 445 512 39,000  Level FlightAware ADS-B
Mon 07:49:05 PM 15.8998 -69.8410 145° Southeast 451 519 39,000  Level FlightAware ADS-B
Mon 07:49:44 PM 15.8320 -69.7914 145° Southeast 451 519 39,000  Level FlightAware ADS-B
Mon 07:50:25 PM 15.7629 -69.7409 145° Southeast 450 518 39,000  Level FlightAware ADS-B
Mon 07:51:03 PM 15.6971 -69.6927 145° Southeast 450 518 39,000  Level FlightAware ADS-B
Mon 07:51:45 PM 15.6263 -69.6409 145° Southeast 450 518 39,000  Level FlightAware ADS-B
Mon 07:52:24 PM 15.5593 -69.5919 145° Southeast 450 518 39,000  Level FlightAware ADS-B
Mon 07:53:05 PM 15.4899 -69.5411 145° Southeast 450 518 39,000  Level FlightAware ADS-B
Mon 07:53:45 PM 15.4226 -69.4919 145° Southeast 451 519 39,000  Level FlightAware ADS-B
Mon 07:54:24 PM 15.3549 -69.4424 145° Southeast 452 520 39,000  Level FlightAware ADS-B
Mon 07:55:05 PM 15.2853 -69.3917 145° Southeast 453 521 39,000  Level FlightAware ADS-B
Mon 07:55:44 PM 15.2180 -69.3427 145° Southeast 453 521 39,000  Level FlightAware ADS-B
Mon 07:56:21 PM 15.1542 -69.2963 145° Southeast 454 522 39,000  Level FlightAware ADS-B
Mon 07:57:04 PM 15.0799 -69.2423 145° Southeast 455 524 39,000  Level FlightAware ADS-B
Mon 07:57:45 PM 15.0103 -69.1918 145° Southeast 455 524 39,000  Level FlightAware ADS-B
Mon 07:58:24 PM 14.9420 -69.1423 145° Southeast 455 524 39,000  Level FlightAware ADS-B
Mon 07:59:05 PM 14.8720 -69.0916 145° Southeast 454 522 39,000  Level FlightAware ADS-B
Mon 07:59:45 PM 14.8036 -69.0420 145° Southeast 451 519 39,000  Level FlightAware ADS-B
Mon 08:00:24 PM 14.7360 -68.9933 145° Southeast 449 517 39,000  Level FlightAware ADS-B
Mon 08:01:04 PM 14.6678 -68.9440 144° Southeast 441 507 39,000  Level FlightAware ADS-B
Mon 08:01:44 PM 14.6000 -68.8950 144° Southeast 440 506 39,000  Level FlightAware ADS-B
Mon 08:02:25 PM 14.5319 -68.8457 144° Southeast 439 505 39,000  Level FlightAware ADS-B
Mon 08:03:04 PM 14.4647 -68.7974 144° Southeast 437 503 39,000  Level FlightAware ADS-B
Mon 08:03:44 PM 14.3979 -68.7491 144° Southeast 437 503 39,000  Level FlightAware ADS-B
Mon 08:04:24 PM 14.3306 -68.7005 144° Southeast 437 503 39,000  Level FlightAware ADS-B
Mon 08:05:05 PM 14.2616 -68.6507 144° Southeast 438 504 39,000  Level FlightAware ADS-B
Mon 08:05:44 PM 14.1963 -68.6036 144° Southeast 439 505 39,000  Level FlightAware ADS-B
Mon 08:06:25 PM 14.1266 -68.5534 144° Southeast 440 506 39,000  Level FlightAware ADS-B
Mon 08:07:06 PM 14.0577 -68.5037 144° Southeast 440 506 39,000  Level FlightAware ADS-B
Mon 08:07:45 PM 13.9907 -68.4554 144° Southeast 441 507 39,000  Level FlightAware ADS-B
Mon 08:08:25 PM 13.9224 -68.4064 145° Southeast 446 513 39,000  Level FlightAware ADS-B
Mon 08:09:05 PM 13.8549 -68.3589 145° Southeast 446 513 39,000  Level FlightAware ADS-B
Mon 08:09:46 PM 13.7854 -68.3094 144° Southeast 439 505 39,000  Level FlightAware ADS-B
Mon 08:10:25 PM 13.7188 -68.2615 144° Southeast 439 505 39,000  Level FlightAware ADS-B
Mon 08:11:06 PM 13.6501 -68.2123 145° Southeast 439 505 39,000  Level FlightAware ADS-B
Mon 08:11:46 PM 13.5828 -68.1642 145° Southeast 439 505 39,000  Level FlightAware ADS-B
Mon 08:12:26 PM 13.5149 -68.1156 144° Southeast 439 505 39,000  Level FlightAware ADS-B
Mon 08:13:05 PM 13.4476 -68.0674 144° Southeast 440 506 39,000  Level FlightAware ADS-B
Mon 08:13:45 PM 13.3807 -68.0195 145° Southeast 448 516 39,000  Level FlightAware ADS-B
Mon 08:14:25 PM 13.3128 -67.9710 145° Southeast 448 516 39,000  Level FlightAware ADS-B
Mon 08:15:25 PM 13.2093 -67.8973 145° Southeast 449 517 39,000  Level FlightAware ADS-B
Mon 08:16:06 PM 13.1398 -67.8478 145° Southeast 450 518 39,000  Level FlightAware ADS-B
Mon 08:16:46 PM 13.0716 -67.7993 145° Southeast 451 519 39,000  Level FlightAware ADS-B
Mon 08:17:25 PM 13.0039 -67.7514 145° Southeast 451 519 39,000  Level FlightAware ADS-B
Mon 08:18:06 PM 12.9342 -67.7020 145° Southeast 451 519 39,000  Level FlightAware ADS-B
Mon 08:18:45 PM 12.8661 -67.6537 145° Southeast 451 519 39,000  Level FlightAware ADS-B
Mon 08:19:26 PM 12.7969 -67.6049 145° Southeast 451 519 39,000  Level FlightAware ADS-B
Mon 08:20:05 PM 12.7279 -67.5564 146° Southeast 452 520 39,000  Level FlightAware ADS-B
Mon 08:20:46 PM 12.6582 -67.5076 145° Southeast 453 521 39,000  Level FlightAware ADS-B
Mon 08:21:26 PM 12.5893 -67.4590 145° Southeast 454 522 39,000  Level FlightAware ADS-B
Mon 08:22:06 PM 12.5198 -67.4100 145° Southeast 455 524 39,000  Level FlightAware ADS-B
Mon 08:22:46 PM 12.4503 -67.3611 145° Southeast 449 517 39,000  Level FlightAware ADS-B
Mon 08:23:25 PM 12.3821 -67.3134 145° Southeast 449 517 39,000  Level FlightAware ADS-B
Mon 08:24:06 PM 12.3112 -67.2635 145° Southeast 449 517 39,000  Level FlightAware ADS-B
Mon 08:24:45 PM 12.2426 -67.2154 145° Southeast 454 522 39,000  Level FlightAware ADS-B
Mon 08:25:26 PM 12.1726 -67.1664 145° Southeast 453 521 39,000  Level FlightAware ADS-B
Mon 08:26:05 PM 12.1035 -67.1182 145° Southeast 453 521 39,000  Level FlightAware ADS-B
Mon 08:26:46 PM 12.0333 -67.0691 146° Southeast 452 520 39,000  Level FlightAware ADS-B
Mon 08:27:25 PM 11.9651 -67.0215 146° Southeast 451 519 39,000  Level FlightAware ADS-B
Mon 08:28:06 PM 11.8960 -66.9730 145° Southeast 451 519 39,000  Level FlightAware ADS-B
Mon 08:28:45 PM 11.8281 -66.9255 145° Southeast 449 517 39,000  Level FlightAware ADS-B
Mon 08:29:26 PM 11.7580 -66.8763 145° Southeast 447 514 39,000  Level FlightAware ADS-B
Mon 08:30:06 PM 11.6899 -66.8287 145° Southeast 438 504 39,000  Level FlightAware ADS-B
Mon 08:30:46 PM 11.6231 -66.7821 145° Southeast 436 502 39,000  Level FlightAware ADS-B
Mon 08:31:27 PM 11.5538 -66.7337 145° Southeast 435 501 39,000  Level FlightAware ADS-B
Mon 08:32:06 PM 11.4868 -66.6864 145° Southeast 436 502 39,000  Level FlightAware ADS-B
Mon 08:32:47 PM 11.4180 -66.6381 145° Southeast 438 504 39,000  Level FlightAware ADS-B
Mon 08:33:26 PM 11.3514 -66.5913 145° Southeast 448 516 39,000  Level FlightAware ADS-B
Mon 08:34:06 PM 11.2826 -66.5430 145° Southeast 449 517 39,000  Level FlightAware ADS-B
Mon 08:34:46 PM 11.2145 -66.4953 145° Southeast 448 516 39,000  Level FlightAware ADS-B
Mon 08:36:44 PM 11.0137 -66.3542 145° Southeast 440 506 39,000  Level FlightAware ADS-B
Mon 08:37:50 PM 10.9023 -66.2759 145° Southeast 439 505 39,000  Level FlightAware ADS-B
Mon 08:38:26 PM 10.8414 -66.2331 145° Southeast 435 501 39,000  Level FlightAware ADS-B
Mon 08:39:07 PM 10.7723 -66.1852 145° Southeast 434 499 39,000  Level FlightAware ADS-B
Mon 08:41:03 PM 10.5737 -66.0508 148° Southeast 443 510 39,000  Level FlightAware ADS-B
Mon 08:43:26 PM 10.3190 -65.9048 151° Southeast 444 511 39,000  Level FlightAware ADS-B
Mon 08:44:06 PM 10.2471 -65.8639 151° Southeast 446 513 39,000 75 Level FlightAware ADS-B
Mon 09:10:13 PM 13.5307 -65.3906 150° Southeast 447 514 41,000 74 Climbing FlightAware ADS-B (SVPR / CGU)
Mon 09:11:10 PM 13.3233 -65.3113 154° Southeast 447 514 41,000  Level FlightAware ADS-B (SVPR / CGU)
Mon 09:12:53 PM 13.3011 -65.3018 159° South 447 514 41,000  Level FlightAware ADS-B (SVPR / CGU)
Mon 09:15:00 PM 13.0547 -65.2193 162° South  Level Estimated
Mon 09:16:00 PM 12.9383 -65.1804 162° South  Level Estimated
Mon 09:17:00 PM 12.8219 -65.1416 162° South  Level Estimated
Mon 09:18:00 PM 12.7055 -65.1028 162° South  Level Estimated
Mon 09:19:00 PM 12.5890 -65.0640 162° South  Level Estimated
Mon 09:20:00 PM 12.4726 -65.0252 162° South  Level Estimated
Mon 09:21:00 PM 12.3562 -64.9865 162° South  Level Estimated
Mon 09:22:00 PM 12.2397 -64.9478 162° South  Level Estimated
Mon 09:23:00 PM 12.1233 -64.9092 162° South  Level Estimated
Mon 09:24:00 PM 12.0068 -64.8705 162° South  Level Estimated
Mon 09:25:00 PM 11.8904 -64.8320 162° South  Level Estimated
Mon 09:26:00 PM 11.7739 -64.7934 162° South  Level Estimated
Mon 09:27:00 PM 11.6574 -64.7549 162° South  Level Estimated
Mon 09:28:00 PM 11.5410 -64.7164 162° South  Level Estimated
Mon 09:29:00 PM 11.4245 -64.6779 162° South  Level Estimated
Mon 09:30:00 PM 11.3080 -64.6395 162° South  Level Estimated
Mon 09:31:00 PM 11.1915 -64.6011 162° South  Level Estimated
Mon 09:32:00 PM 11.0750 -64.5628 162° South  Level Estimated
Mon 09:33:00 PM 10.9585 -64.5245 162° South  Level Estimated
Mon 09:34:00 PM 10.8420 -64.4862 162° South  Level Estimated
Mon 09:35:00 PM 10.7255 -64.4479 162° South  Level Estimated
Mon 09:36:00 PM 10.6090 -64.4096 162° South  Level Estimated
Mon 09:37:00 PM 10.4925 -64.3714 162° South  Level Estimated
Mon 09:38:00 PM 10.3760 -64.3333 162° South  Level Estimated
Mon 09:39:00 PM 10.2594 -64.2951 162° South  Level Estimated
Mon 09:40:00 PM 10.1429 -64.2570 162° South  Level Estimated
Mon 09:41:00 PM 10.0264 -64.2189 162° South  Level Estimated
Mon 09:42:00 PM 9.9098 -64.1808 162° South  Level Estimated
Mon 09:43:00 PM 9.7933 -64.1428 162° South  Level Estimated
Mon 09:44:00 PM 9.6768 -64.1047 162° South  Level Estimated
Mon 09:45:00 PM 9.5602 -64.0667 162° South  Level Estimated
Mon 09:46:00 PM 9.4437 -64.0288 162° South  Level Estimated
Mon 09:47:00 PM 9.3271 -63.9908 162° South  Level Estimated
Mon 09:48:00 PM 9.2105 -63.9529 162° South  Level Estimated
Mon 09:49:00 PM 9.0940 -63.9151 162° South  Level Estimated
Mon 09:50:00 PM 8.9774 -63.8772 162° South  Level Estimated
Mon 09:51:00 PM 8.8608 -63.8393 162° South  Level Estimated
Mon 09:52:00 PM 8.7442 -63.8015 162° South  Level Estimated
Mon 09:53:00 PM 8.6277 -63.7637 162° South  Level Estimated
Mon 09:54:00 PM 8.5111 -63.7260 162° South  Level Estimated
Mon 09:55:00 PM 8.3945 -63.6882 162° South  Level Estimated
Mon 09:56:00 PM 8.2779 -63.6505 162° South  Level Estimated
Mon 09:57:00 PM 8.1613 -63.6128 162° South  Level Estimated
Mon 09:58:00 PM 8.0447 -63.5751 162° South  Level Estimated
Mon 09:59:00 PM 7.9281 -63.5375 162° South  Level Estimated
Mon 10:00:00 PM 7.8115 -63.4998 162° South  Level Estimated
Mon 10:01:00 PM 7.6949 -63.4622 162° South  Level Estimated
Mon 10:02:00 PM 7.5783 -63.4246 162° South  Level Estimated
Mon 10:03:00 PM 7.4616 -63.3871 162° South  Level Estimated
Mon 10:04:00 PM 7.3450 -63.3495 162° South  Level Estimated
Mon 10:05:00 PM 7.2284 -63.3120 162° South  Level Estimated
Mon 10:06:00 PM 7.1118 -63.2744 162° South  Level Estimated
Mon 10:07:00 PM 6.9951 -63.2369 162° South  Level Estimated
Mon 10:08:00 PM 6.8785 -63.1995 162° South  Level Estimated
Mon 10:09:00 PM 6.7619 -63.1620 162° South  Level Estimated
Mon 10:10:00 PM 6.6452 -63.1246 162° South  Level Estimated
Mon 10:11:00 PM 6.5286 -63.0872 162° South  Level Estimated
Mon 10:12:00 PM 6.4120 -63.0498 162° South  Level Estimated
Mon 10:13:00 PM 6.2953 -63.0124 162° South  Level Estimated
Mon 10:14:00 PM 6.1787 -62.9750 162° South  Level Estimated
Mon 10:15:00 PM 6.0620 -62.9376 162° South  Level Estimated
Mon 10:16:00 PM 5.9454 -62.9003 162° South  Level Estimated
Mon 10:17:00 PM 5.8287 -62.8630 162° South  Level Estimated
Mon 10:18:00 PM 5.7120 -62.8257 162° South  Level Estimated
Mon 10:19:00 PM 5.5954 -62.7884 162° South  Level Estimated
Mon 10:20:00 PM 5.4787 -62.7511 162° South  Level Estimated
Mon 10:21:00 PM 5.3621 -62.7138 162° South  Level Estimated
Mon 10:22:00 PM 5.2454 -62.6766 162° South  Level Estimated
Mon 10:23:00 PM 5.1287 -62.6394 162° South  Level Estimated
Mon 10:24:00 PM 5.0120 -62.6021 162° South  Level Estimated
Mon 10:25:00 PM 4.8954 -62.5649 162° South  Level Estimated
Mon 10:26:00 PM 4.7787 -62.5277 162° South  Level Estimated
Mon 10:27:00 PM 4.6620 -62.4906 162° South  Level Estimated
Mon 10:28:00 PM 4.5453 -62.4534 162° South  Level Estimated
Mon 10:29:00 PM 4.4270 -62.4157 162° South  Level Estimated
Mon 10:30:00 PM 4.3087 -62.3781 162° South  Level Estimated
Mon 10:31:00 PM 4.1904 -62.3404 162° South  Level Estimated
Mon 10:32:00 PM 4.0721 -62.3028 162° South  Level Estimated
Mon 10:33:00 PM 3.9538 -62.2651 162° South  Level Estimated
Mon 10:34:00 PM 3.8355 -62.2275 162° South  Level Estimated
Mon 10:35:00 PM 3.7172 -62.1899 162° South  Level Estimated
Mon 10:36:00 PM 3.5989 -62.1523 162° South  Level Estimated
Mon 10:37:00 PM 3.4806 -62.1148 162° South  Level Estimated
Mon 10:38:00 PM 3.3623 -62.0772 162° South  Level Estimated
Mon 10:39:00 PM 3.2439 -62.0396 162° South  Level Estimated
Mon 10:40:00 PM 3.1256 -62.0021 162° South  Level Estimated
Mon 10:41:00 PM 3.0073 -61.9645 162° South  Level Estimated
Mon 10:42:00 PM 2.8890 -61.9270 162° South  Level Estimated
Mon 10:43:00 PM 2.7707 -61.8894 162° South  Level Estimated
Mon 10:44:00 PM 2.6524 -61.8519 162° South  Level Estimated
Mon 10:45:00 PM 2.5340 -61.8144 162° South  Level Estimated
Mon 10:46:00 PM 2.4157 -61.7769 162° South  Level Estimated
Mon 10:47:00 PM 2.2974 -61.7394 162° South  Level Estimated
Mon 10:48:00 PM 2.1791 -61.7019 162° South  Level Estimated
Mon 10:49:00 PM 2.0607 -61.6644 162° South  Level Estimated
Mon 10:50:00 PM 1.9424 -61.6269 162° South  Level Estimated
Mon 10:51:00 PM 1.8241 -61.5894 162° South  Level Estimated
Mon 10:52:00 PM 1.7058 -61.5519 162° South  Level Estimated
Mon 10:53:00 PM 1.5874 -61.5145 162° South  Level Estimated
Mon 10:54:00 PM 1.4691 -61.4770 162° South  Level Estimated

Login

Don't have an account? Register now (free) for customized features, flight alerts, and more!